sensor_id;sensor_type;location;lat;lon;timestamp;P1;durP1;ratioP1;P2;durP2;ratioP2
72635;SDS011;60679;48.888;15.544;2022-10-16T00:01:54;2.70;;;0.77;;
72635;SDS011;60679;48.888;15.544;2022-10-16T00:04:19;2.50;;;0.57;;
72635;SDS011;60679;48.888;15.544;2022-10-16T00:06:44;3.03;;;1.00;;
72635;SDS011;60679;48.888;15.544;2022-10-16T00:09:10;2.25;;;0.52;;
72635;SDS011;60679;48.888;15.544;2022-10-16T00:11:37;3.17;;;0.83;;
72635;SDS011;60679;48.888;15.544;2022-10-16T00:14:05;2.50;;;0.68;;
72635;SDS011;60679;48.888;15.544;2022-10-16T00:16:33;2.75;;;0.90;;
72635;SDS011;60679;48.888;15.544;2022-10-16T00:18:59;3.63;;;1.43;;
72635;SDS011;60679;48.888;15.544;2022-10-16T00:21:26;4.53;;;1.40;;
72635;SDS011;60679;48.888;15.544;2022-10-16T00:23:53;3.65;;;1.35;;
72635;SDS011;60679;48.888;15.544;2022-10-16T00:26:20;2.72;;;0.65;;
72635;SDS011;60679;48.888;15.544;2022-10-16T00:28:47;2.57;;;0.70;;
72635;SDS011;60679;48.888;15.544;2022-10-16T00:31:14;2.72;;;0.70;;
72635;SDS011;60679;48.888;15.544;2022-10-16T00:33:39;3.92;;;1.20;;
72635;SDS011;60679;48.888;15.544;2022-10-16T00:36:06;3.30;;;1.13;;
72635;SDS011;60679;48.888;15.544;2022-10-16T00:38:34;3.20;;;0.88;;
72635;SDS011;60679;48.888;15.544;2022-10-16T00:41:00;3.13;;;1.10;;
72635;SDS011;60679;48.888;15.544;2022-10-16T00:43:33;2.55;;;0.65;;
72635;SDS011;60679;48.888;15.544;2022-10-16T00:46:01;7.75;;;1.35;;
72635;SDS011;60679;48.888;15.544;2022-10-16T00:48:27;2.93;;;1.03;;
72635;SDS011;60679;48.888;15.544;2022-10-16T00:50:53;6.13;;;0.82;;
72635;SDS011;60679;48.888;15.544;2022-10-16T00:53:18;3.17;;;1.03;;
72635;SDS011;60679;48.888;15.544;2022-10-16T00:55:44;3.05;;;1.00;;
72635;SDS011;60679;48.888;15.544;2022-10-16T00:58:11;3.87;;;1.67;;
72635;SDS011;60679;48.888;15.544;2022-10-16T01:00:37;3.90;;;1.35;;
72635;SDS011;60679;48.888;15.544;2022-10-16T01:03:21;2.90;;;0.90;;
72635;SDS011;60679;48.888;15.544;2022-10-16T01:05:50;3.20;;;1.13;;
72635;SDS011;60679;48.888;15.544;2022-10-16T01:08:42;4.15;;;1.40;;
72635;SDS011;60679;48.888;15.544;2022-10-16T01:13:42;4.83;;;1.13;;
72635;SDS011;60679;48.888;15.544;2022-10-16T01:16:15;4.13;;;2.03;;
72635;SDS011;60679;48.888;15.544;2022-10-16T01:18:54;4.32;;;1.20;;
72635;SDS011;60679;48.888;15.544;2022-10-16T01:21:32;4.38;;;1.45;;
72635;SDS011;60679;48.888;15.544;2022-10-16T01:24:17;5.05;;;1.42;;
72635;SDS011;60679;48.888;15.544;2022-10-16T01:29:54;3.28;;;1.20;;
72635;SDS011;60679;48.888;15.544;2022-10-16T01:34:56;4.07;;;1.23;;
72635;SDS011;60679;48.888;15.544;2022-10-16T01:37:39;3.00;;;0.80;;
72635;SDS011;60679;48.888;15.544;2022-10-16T01:40:10;3.30;;;1.20;;
72635;SDS011;60679;48.888;15.544;2022-10-16T01:42:42;5.45;;;1.20;;
72635;SDS011;60679;48.888;15.544;2022-10-16T01:45:12;4.35;;;1.27;;
72635;SDS011;60679;48.888;15.544;2022-10-16T01:47:40;3.45;;;1.10;;
72635;SDS011;60679;48.888;15.544;2022-10-16T01:50:08;5.30;;;1.88;;
72635;SDS011;60679;48.888;15.544;2022-10-16T01:52:35;4.43;;;2.13;;
72635;SDS011;60679;48.888;15.544;2022-10-16T01:55:04;4.53;;;1.75;;
72635;SDS011;60679;48.888;15.544;2022-10-16T01:57:33;4.50;;;1.85;;
72635;SDS011;60679;48.888;15.544;2022-10-16T02:00:04;5.38;;;2.17;;
72635;SDS011;60679;48.888;15.544;2022-10-16T02:02:33;5.30;;;1.60;;
72635;SDS011;60679;48.888;15.544;2022-10-16T02:05:02;4.30;;;1.97;;
72635;SDS011;60679;48.888;15.544;2022-10-16T02:07:35;5.07;;;2.45;;
72635;SDS011;60679;48.888;15.544;2022-10-16T02:10:01;5.87;;;1.60;;
72635;SDS011;60679;48.888;15.544;2022-10-16T02:12:31;4.07;;;1.63;;
72635;SDS011;60679;48.888;15.544;2022-10-16T02:15:01;3.78;;;1.58;;
72635;SDS011;60679;48.888;15.544;2022-10-16T02:17:27;3.13;;;1.27;;
72635;SDS011;60679;48.888;15.544;2022-10-16T02:19:54;3.47;;;0.93;;
72635;SDS011;60679;48.888;15.544;2022-10-16T02:27:26;3.00;;;0.83;;
72635;SDS011;60679;48.888;15.544;2022-10-16T02:32:39;3.45;;;1.15;;
72635;SDS011;60679;48.888;15.544;2022-10-16T02:35:07;3.70;;;1.40;;
72635;SDS011;60679;48.888;15.544;2022-10-16T02:37:34;2.77;;;0.80;;
72635;SDS011;60679;48.888;15.544;2022-10-16T02:40:01;3.55;;;1.50;;
72635;SDS011;60679;48.888;15.544;2022-10-16T02:42:28;5.05;;;2.15;;
72635;SDS011;60679;48.888;15.544;2022-10-16T02:44:57;3.95;;;1.73;;
72635;SDS011;60679;48.888;15.544;2022-10-16T02:47:23;3.57;;;1.50;;
72635;SDS011;60679;48.888;15.544;2022-10-16T02:49:48;5.40;;;1.43;;
72635;SDS011;60679;48.888;15.544;2022-10-16T02:52:14;7.57;;;1.50;;
72635;SDS011;60679;48.888;15.544;2022-10-16T02:54:39;3.00;;;1.00;;
72635;SDS011;60679;48.888;15.544;2022-10-16T02:57:04;3.10;;;0.80;;
72635;SDS011;60679;48.888;15.544;2022-10-16T02:59:30;2.87;;;1.00;;
72635;SDS011;60679;48.888;15.544;2022-10-16T03:01:55;2.77;;;0.80;;
72635;SDS011;60679;48.888;15.544;2022-10-16T03:04:20;3.33;;;1.13;;
72635;SDS011;60679;48.888;15.544;2022-10-16T03:06:46;4.20;;;1.50;;
72635;SDS011;60679;48.888;15.544;2022-10-16T03:09:11;3.47;;;1.53;;
72635;SDS011;60679;48.888;15.544;2022-10-16T03:11:36;3.05;;;1.10;;
72635;SDS011;60679;48.888;15.544;2022-10-16T03:14:02;3.10;;;1.17;;
72635;SDS011;60679;48.888;15.544;2022-10-16T03:16:27;3.47;;;1.63;;
72635;SDS011;60679;48.888;15.544;2022-10-16T03:18:53;3.60;;;1.23;;
72635;SDS011;60679;48.888;15.544;2022-10-16T03:21:18;2.55;;;0.73;;
72635;SDS011;60679;48.888;15.544;2022-10-16T03:23:44;2.97;;;0.70;;
72635;SDS011;60679;48.888;15.544;2022-10-16T03:26:09;3.13;;;0.87;;
72635;SDS011;60679;48.888;15.544;2022-10-16T03:28:34;3.00;;;1.07;;
72635;SDS011;60679;48.888;15.544;2022-10-16T03:31:00;2.70;;;0.80;;
72635;SDS011;60679;48.888;15.544;2022-10-16T03:33:25;2.70;;;0.90;;
72635;SDS011;60679;48.888;15.544;2022-10-16T03:35:54;3.10;;;0.98;;
72635;SDS011;60679;48.888;15.544;2022-10-16T03:38:20;3.20;;;0.70;;
72635;SDS011;60679;48.888;15.544;2022-10-16T03:40:46;2.88;;;0.98;;
72635;SDS011;60679;48.888;15.544;2022-10-16T03:43:11;2.60;;;0.70;;
72635;SDS011;60679;48.888;15.544;2022-10-16T03:45:37;3.50;;;1.60;;
72635;SDS011;60679;48.888;15.544;2022-10-16T03:48:02;2.97;;;0.80;;
72635;SDS011;60679;48.888;15.544;2022-10-16T03:50:28;2.90;;;0.63;;
72635;SDS011;60679;48.888;15.544;2022-10-16T03:52:54;3.47;;;1.00;;
72635;SDS011;60679;48.888;15.544;2022-10-16T03:55:20;4.22;;;1.67;;
72635;SDS011;60679;48.888;15.544;2022-10-16T03:57:45;2.10;;;0.40;;
72635;SDS011;60679;48.888;15.544;2022-10-16T04:00:11;3.73;;;1.27;;
72635;SDS011;60679;48.888;15.544;2022-10-16T04:02:36;5.05;;;1.83;;
72635;SDS011;60679;48.888;15.544;2022-10-16T04:05:02;4.37;;;1.43;;
72635;SDS011;60679;48.888;15.544;2022-10-16T04:07:27;3.13;;;1.07;;
72635;SDS011;60679;48.888;15.544;2022-10-16T04:09:53;3.97;;;1.08;;
72635;SDS011;60679;48.888;15.544;2022-10-16T04:12:19;3.57;;;1.23;;
72635;SDS011;60679;48.888;15.544;2022-10-16T04:14:45;3.15;;;1.15;;
72635;SDS011;60679;48.888;15.544;2022-10-16T04:17:10;3.60;;;1.00;;
72635;SDS011;60679;48.888;15.544;2022-10-16T04:19:35;3.83;;;1.13;;
72635;SDS011;60679;48.888;15.544;2022-10-16T04:22:02;3.33;;;1.00;;
72635;SDS011;60679;48.888;15.544;2022-10-16T04:24:27;3.05;;;0.80;;
72635;SDS011;60679;48.888;15.544;2022-10-16T04:26:53;3.37;;;1.30;;
72635;SDS011;60679;48.888;15.544;2022-10-16T04:29:18;3.40;;;1.20;;
72635;SDS011;60679;48.888;15.544;2022-10-16T04:31:44;3.37;;;0.80;;
72635;SDS011;60679;48.888;15.544;2022-10-16T04:34:09;2.73;;;0.70;;
72635;SDS011;60679;48.888;15.544;2022-10-16T04:36:34;3.87;;;1.67;;
72635;SDS011;60679;48.888;15.544;2022-10-16T04:39:00;2.83;;;0.93;;
72635;SDS011;60679;48.888;15.544;2022-10-16T04:41:25;2.65;;;0.85;;
72635;SDS011;60679;48.888;15.544;2022-10-16T04:43:50;3.10;;;0.90;;
72635;SDS011;60679;48.888;15.544;2022-10-16T04:46:16;3.40;;;0.90;;
72635;SDS011;60679;48.888;15.544;2022-10-16T04:48:41;3.00;;;0.70;;
72635;SDS011;60679;48.888;15.544;2022-10-16T04:51:06;3.70;;;1.07;;
72635;SDS011;60679;48.888;15.544;2022-10-16T04:53:32;3.00;;;0.90;;
72635;SDS011;60679;48.888;15.544;2022-10-16T04:55:58;3.22;;;1.10;;
72635;SDS011;60679;48.888;15.544;2022-10-16T04:58:23;3.43;;;1.07;;
72635;SDS011;60679;48.888;15.544;2022-10-16T05:00:49;3.22;;;0.88;;
72635;SDS011;60679;48.888;15.544;2022-10-16T05:03:14;3.50;;;1.03;;
72635;SDS011;60679;48.888;15.544;2022-10-16T05:05:43;3.40;;;1.10;;
72635;SDS011;60679;48.888;15.544;2022-10-16T05:08:10;4.15;;;0.88;;
72635;SDS011;60679;48.888;15.544;2022-10-16T05:10:36;3.80;;;0.80;;
72635;SDS011;60679;48.888;15.544;2022-10-16T05:13:02;2.90;;;0.80;;
72635;SDS011;60679;48.888;15.544;2022-10-16T05:15:28;3.40;;;1.10;;
72635;SDS011;60679;48.888;15.544;2022-10-16T05:17:54;3.33;;;1.10;;
72635;SDS011;60679;48.888;15.544;2022-10-16T05:20:19;2.50;;;0.60;;
72635;SDS011;60679;48.888;15.544;2022-10-16T05:22:45;3.77;;;1.00;;
72635;SDS011;60679;48.888;15.544;2022-10-16T05:25:11;3.03;;;0.95;;
72635;SDS011;60679;48.888;15.544;2022-10-16T05:27:36;2.67;;;0.67;;
72635;SDS011;60679;48.888;15.544;2022-10-16T05:30:02;3.33;;;0.93;;
72635;SDS011;60679;48.888;15.544;2022-10-16T05:32:28;4.07;;;1.35;;
72635;SDS011;60679;48.888;15.544;2022-10-16T05:34:53;4.77;;;2.17;;
72635;SDS011;60679;48.888;15.544;2022-10-16T05:37:19;2.77;;;0.80;;
72635;SDS011;60679;48.888;15.544;2022-10-16T05:39:44;3.13;;;1.10;;
72635;SDS011;60679;48.888;15.544;2022-10-16T05:42:09;3.50;;;0.97;;
72635;SDS011;60679;48.888;15.544;2022-10-16T05:44:35;4.75;;;1.10;;
72635;SDS011;60679;48.888;15.544;2022-10-16T05:47:00;3.03;;;0.87;;
72635;SDS011;60679;48.888;15.544;2022-10-16T05:49:26;3.30;;;1.00;;
72635;SDS011;60679;48.888;15.544;2022-10-16T05:51:51;3.77;;;1.10;;
72635;SDS011;60679;48.888;15.544;2022-10-16T05:54:17;3.97;;;1.73;;
72635;SDS011;60679;48.888;15.544;2022-10-16T05:56:42;3.43;;;1.63;;
72635;SDS011;60679;48.888;15.544;2022-10-16T05:59:08;6.30;;;2.30;;
72635;SDS011;60679;48.888;15.544;2022-10-16T06:01:33;3.58;;;1.10;;
72635;SDS011;60679;48.888;15.544;2022-10-16T06:04:00;4.63;;;1.50;;
72635;SDS011;60679;48.888;15.544;2022-10-16T06:06:27;3.13;;;1.35;;
72635;SDS011;60679;48.888;15.544;2022-10-16T06:08:55;4.93;;;2.30;;
72635;SDS011;60679;48.888;15.544;2022-10-16T06:11:24;3.92;;;1.85;;
72635;SDS011;60679;48.888;15.544;2022-10-16T06:13:53;3.38;;;1.35;;
72635;SDS011;60679;48.888;15.544;2022-10-16T06:16:21;6.17;;;2.80;;
72635;SDS011;60679;48.888;15.544;2022-10-16T06:18:47;3.45;;;1.15;;
72635;SDS011;60679;48.888;15.544;2022-10-16T06:21:17;4.60;;;1.10;;
72635;SDS011;60679;48.888;15.544;2022-10-16T06:23:43;2.90;;;1.00;;
72635;SDS011;60679;48.888;15.544;2022-10-16T06:26:11;6.33;;;3.50;;
72635;SDS011;60679;48.888;15.544;2022-10-16T06:28:39;4.15;;;1.85;;
72635;SDS011;60679;48.888;15.544;2022-10-16T06:31:05;3.42;;;0.95;;
72635;SDS011;60679;48.888;15.544;2022-10-16T06:33:32;2.67;;;0.77;;
72635;SDS011;60679;48.888;15.544;2022-10-16T06:36:04;3.77;;;1.77;;
72635;SDS011;60679;48.888;15.544;2022-10-16T06:38:35;3.45;;;1.05;;
72635;SDS011;60679;48.888;15.544;2022-10-16T06:41:01;3.10;;;1.10;;
72635;SDS011;60679;48.888;15.544;2022-10-16T06:43:28;3.40;;;1.23;;
72635;SDS011;60679;48.888;15.544;2022-10-16T06:45:57;2.67;;;0.65;;
72635;SDS011;60679;48.888;15.544;2022-10-16T06:48:24;4.88;;;2.08;;
72635;SDS011;60679;48.888;15.544;2022-10-16T06:51:10;4.65;;;1.85;;
72635;SDS011;60679;48.888;15.544;2022-10-16T06:53:46;3.37;;;1.50;;
72635;SDS011;60679;48.888;15.544;2022-10-16T06:58:39;3.00;;;1.20;;
72635;SDS011;60679;48.888;15.544;2022-10-16T07:01:12;3.40;;;1.27;;
72635;SDS011;60679;48.888;15.544;2022-10-16T07:03:42;6.90;;;2.67;;
72635;SDS011;60679;48.888;15.544;2022-10-16T07:06:09;3.25;;;1.20;;
72635;SDS011;60679;48.888;15.544;2022-10-16T07:08:36;6.22;;;2.47;;
72635;SDS011;60679;48.888;15.544;2022-10-16T07:11:04;4.07;;;2.10;;
72635;SDS011;60679;48.888;15.544;2022-10-16T07:13:35;4.00;;;1.92;;
72635;SDS011;60679;48.888;15.544;2022-10-16T07:16:05;4.22;;;1.65;;
72635;SDS011;60679;48.888;15.544;2022-10-16T07:18:35;5.40;;;2.25;;
72635;SDS011;60679;48.888;15.544;2022-10-16T07:21:17;3.22;;;1.20;;
72635;SDS011;60679;48.888;15.544;2022-10-16T07:23:45;3.47;;;1.13;;
72635;SDS011;60679;48.888;15.544;2022-10-16T07:26:15;6.10;;;2.45;;
72635;SDS011;60679;48.888;15.544;2022-10-16T07:28:42;4.57;;;2.20;;
72635;SDS011;60679;48.888;15.544;2022-10-16T07:31:09;5.15;;;2.00;;
72635;SDS011;60679;48.888;15.544;2022-10-16T07:33:37;4.30;;;1.63;;
72635;SDS011;60679;48.888;15.544;2022-10-16T07:36:05;3.28;;;1.00;;
72635;SDS011;60679;48.888;15.544;2022-10-16T07:38:31;6.37;;;2.50;;
72635;SDS011;60679;48.888;15.544;2022-10-16T07:40:57;3.72;;;1.33;;
72635;SDS011;60679;48.888;15.544;2022-10-16T07:43:24;4.73;;;2.03;;
72635;SDS011;60679;48.888;15.544;2022-10-16T07:45:50;4.68;;;1.88;;
72635;SDS011;60679;48.888;15.544;2022-10-16T07:48:16;4.45;;;1.95;;
72635;SDS011;60679;48.888;15.544;2022-10-16T07:50:42;3.22;;;1.13;;
72635;SDS011;60679;48.888;15.544;2022-10-16T07:53:08;4.90;;;1.30;;
72635;SDS011;60679;48.888;15.544;2022-10-16T07:55:34;3.08;;;0.85;;
72635;SDS011;60679;48.888;15.544;2022-10-16T07:58:00;3.63;;;1.43;;
72635;SDS011;60679;48.888;15.544;2022-10-16T08:00:25;4.57;;;2.08;;
72635;SDS011;60679;48.888;15.544;2022-10-16T08:02:51;5.03;;;2.33;;
72635;SDS011;60679;48.888;15.544;2022-10-16T08:05:16;3.10;;;1.10;;
72635;SDS011;60679;48.888;15.544;2022-10-16T08:07:42;3.90;;;1.60;;
72635;SDS011;60679;48.888;15.544;2022-10-16T08:10:11;4.80;;;1.73;;
72635;SDS011;60679;48.888;15.544;2022-10-16T08:12:44;3.90;;;1.60;;
72635;SDS011;60679;48.888;15.544;2022-10-16T08:15:09;4.90;;;2.40;;
72635;SDS011;60679;48.888;15.544;2022-10-16T08:17:35;4.00;;;1.10;;
72635;SDS011;60679;48.888;15.544;2022-10-16T08:20:00;4.77;;;1.40;;
72635;SDS011;60679;48.888;15.544;2022-10-16T08:22:26;4.90;;;1.55;;
72635;SDS011;60679;48.888;15.544;2022-10-16T08:24:52;4.32;;;1.80;;
72635;SDS011;60679;48.888;15.544;2022-10-16T08:27:17;4.70;;;1.97;;
72635;SDS011;60679;48.888;15.544;2022-10-16T08:29:45;7.38;;;1.77;;
72635;SDS011;60679;48.888;15.544;2022-10-16T08:32:11;4.77;;;2.20;;
72635;SDS011;60679;48.888;15.544;2022-10-16T08:34:37;5.20;;;1.57;;
72635;SDS011;60679;48.888;15.544;2022-10-16T08:37:02;5.85;;;2.58;;
72635;SDS011;60679;48.888;15.544;2022-10-16T08:39:27;4.30;;;2.10;;
72635;SDS011;60679;48.888;15.544;2022-10-16T08:45:01;3.60;;;1.33;;
72635;SDS011;60679;48.888;15.544;2022-10-16T08:50:28;4.20;;;1.23;;
72635;SDS011;60679;48.888;15.544;2022-10-16T08:52:55;3.10;;;1.07;;
72635;SDS011;60679;48.888;15.544;2022-10-16T08:58:23;3.83;;;1.50;;
72635;SDS011;60679;48.888;15.544;2022-10-16T09:00:53;3.95;;;1.42;;
72635;SDS011;60679;48.888;15.544;2022-10-16T09:03:32;4.00;;;1.33;;
72635;SDS011;60679;48.888;15.544;2022-10-16T09:12:19;4.28;;;2.08;;
72635;SDS011;60679;48.888;15.544;2022-10-16T09:14:54;3.70;;;1.45;;
72635;SDS011;60679;48.888;15.544;2022-10-16T09:17:34;4.25;;;1.77;;
72635;SDS011;60679;48.888;15.544;2022-10-16T09:23:00;6.00;;;1.98;;
72635;SDS011;60679;48.888;15.544;2022-10-16T09:25:37;4.20;;;1.77;;
72635;SDS011;60679;48.888;15.544;2022-10-16T09:28:07;4.78;;;2.25;;
72635;SDS011;60679;48.888;15.544;2022-10-16T09:30:34;5.25;;;2.35;;
72635;SDS011;60679;48.888;15.544;2022-10-16T09:32:59;4.27;;;1.90;;
72635;SDS011;60679;48.888;15.544;2022-10-16T09:35:33;4.10;;;1.63;;
72635;SDS011;60679;48.888;15.544;2022-10-16T09:38:03;3.80;;;1.10;;
72635;SDS011;60679;48.888;15.544;2022-10-16T09:48:56;4.13;;;1.63;;
72635;SDS011;60679;48.888;15.544;2022-10-16T09:51:26;4.50;;;2.05;;
72635;SDS011;60679;48.888;15.544;2022-10-16T09:53:56;4.53;;;1.47;;
72635;SDS011;60679;48.888;15.544;2022-10-16T09:56:27;3.88;;;1.48;;
72635;SDS011;60679;48.888;15.544;2022-10-16T09:59:20;4.35;;;1.92;;
72635;SDS011;60679;48.888;15.544;2022-10-16T10:04:21;4.45;;;2.15;;
72635;SDS011;60679;48.888;15.544;2022-10-16T10:06:50;4.00;;;1.50;;
72635;SDS011;60679;48.888;15.544;2022-10-16T10:09:24;4.32;;;2.00;;
72635;SDS011;60679;48.888;15.544;2022-10-16T10:11:57;4.75;;;1.65;;
72635;SDS011;60679;48.888;15.544;2022-10-16T10:14:30;4.57;;;2.00;;
72635;SDS011;60679;48.888;15.544;2022-10-16T10:19:30;5.70;;;1.43;;
72635;SDS011;60679;48.888;15.544;2022-10-16T10:38:49;4.47;;;2.40;;
72635;SDS011;60679;48.888;15.544;2022-10-16T10:44:06;5.18;;;2.88;;
72635;SDS011;60679;48.888;15.544;2022-10-16T10:46:48;4.93;;;2.33;;
72635;SDS011;60679;48.888;15.544;2022-10-16T10:49:24;4.13;;;2.08;;
72635;SDS011;60679;48.888;15.544;2022-10-16T10:52:13;5.23;;;2.23;;
72635;SDS011;60679;48.888;15.544;2022-10-16T11:00:34;4.82;;;2.30;;
72635;SDS011;60679;48.888;15.544;2022-10-16T11:06:20;6.77;;;3.43;;
72635;SDS011;60679;48.888;15.544;2022-10-16T11:09:13;6.47;;;3.40;;
72635;SDS011;60679;48.888;15.544;2022-10-16T11:12:52;7.75;;;3.22;;
72635;SDS011;60679;48.888;15.544;2022-10-16T11:17:30;5.43;;;2.37;;
72635;SDS011;60679;48.888;15.544;2022-10-16T11:20:02;5.65;;;2.97;;
72635;SDS011;60679;48.888;15.544;2022-10-16T11:27:43;7.28;;;3.00;;
72635;SDS011;60679;48.888;15.544;2022-10-16T11:30:30;6.38;;;2.53;;
72635;SDS011;60679;48.888;15.544;2022-10-16T11:36:11;6.18;;;3.38;;
72635;SDS011;60679;48.888;15.544;2022-10-16T11:41:32;7.32;;;3.75;;
72635;SDS011;60679;48.888;15.544;2022-10-16T11:49:49;6.60;;;3.88;;
72635;SDS011;60679;48.888;15.544;2022-10-16T11:52:25;6.63;;;3.43;;
72635;SDS011;60679;48.888;15.544;2022-10-16T11:57:47;5.95;;;2.92;;
72635;SDS011;60679;48.888;15.544;2022-10-16T12:05:55;7.13;;;3.27;;
72635;SDS011;60679;48.888;15.544;2022-10-16T12:08:33;5.93;;;3.45;;
72635;SDS011;60679;48.888;15.544;2022-10-16T12:11:09;8.73;;;3.90;;
72635;SDS011;60679;48.888;15.544;2022-10-16T12:13:47;6.68;;;3.53;;
72635;SDS011;60679;48.888;15.544;2022-10-16T12:18:45;5.82;;;3.15;;
72635;SDS011;60679;48.888;15.544;2022-10-16T12:21:12;6.15;;;3.53;;
72635;SDS011;60679;48.888;15.544;2022-10-16T12:26:32;7.70;;;3.30;;
72635;SDS011;60679;48.888;15.544;2022-10-16T12:29:30;5.72;;;3.20;;
72635;SDS011;60679;48.888;15.544;2022-10-16T12:31:59;5.90;;;3.35;;
72635;SDS011;60679;48.888;15.544;2022-10-16T12:34:37;6.75;;;3.97;;
72635;SDS011;60679;48.888;15.544;2022-10-16T12:37:11;5.63;;;3.40;;
72635;SDS011;60679;48.888;15.544;2022-10-16T12:39:40;6.05;;;3.58;;
72635;SDS011;60679;48.888;15.544;2022-10-16T12:42:31;6.90;;;3.92;;
72635;SDS011;60679;48.888;15.544;2022-10-16T12:44:59;9.00;;;4.40;;
72635;SDS011;60679;48.888;15.544;2022-10-16T12:49:56;7.27;;;3.77;;
72635;SDS011;60679;48.888;15.544;2022-10-16T12:52:36;7.35;;;3.83;;
72635;SDS011;60679;48.888;15.544;2022-10-16T12:55:04;10.32;;;4.35;;
72635;SDS011;60679;48.888;15.544;2022-10-16T13:02:55;7.70;;;3.70;;
72635;SDS011;60679;48.888;15.544;2022-10-16T13:08:47;6.43;;;3.33;;
72635;SDS011;60679;48.888;15.544;2022-10-16T13:11:28;9.95;;;4.82;;
72635;SDS011;60679;48.888;15.544;2022-10-16T13:17:18;9.57;;;3.73;;
72635;SDS011;60679;48.888;15.544;2022-10-16T13:20:00;9.18;;;4.78;;
72635;SDS011;60679;48.888;15.544;2022-10-16T13:22:40;8.00;;;4.05;;
72635;SDS011;60679;48.888;15.544;2022-10-16T13:28:08;8.70;;;3.72;;
72635;SDS011;60679;48.888;15.544;2022-10-16T13:33:27;7.93;;;3.88;;
72635;SDS011;60679;48.888;15.544;2022-10-16T13:35:58;6.68;;;3.83;;
72635;SDS011;60679;48.888;15.544;2022-10-16T13:38:24;6.78;;;3.60;;
72635;SDS011;60679;48.888;15.544;2022-10-16T13:43:26;9.53;;;4.00;;
72635;SDS011;60679;48.888;15.544;2022-10-16T13:46:01;10.38;;;4.30;;
72635;SDS011;60679;48.888;15.544;2022-10-16T13:48:29;6.72;;;3.13;;
72635;SDS011;60679;48.888;15.544;2022-10-16T13:51:14;8.55;;;3.97;;
72635;SDS011;60679;48.888;15.544;2022-10-16T13:53:42;6.93;;;3.33;;
72635;SDS011;60679;48.888;15.544;2022-10-16T13:56:17;5.93;;;2.73;;
72635;SDS011;60679;48.888;15.544;2022-10-16T13:58:44;9.70;;;3.20;;
72635;SDS011;60679;48.888;15.544;2022-10-16T14:03:44;7.47;;;3.70;;
72635;SDS011;60679;48.888;15.544;2022-10-16T14:06:15;7.70;;;3.03;;
72635;SDS011;60679;48.888;15.544;2022-10-16T14:08:46;9.13;;;2.97;;
72635;SDS011;60679;48.888;15.544;2022-10-16T14:11:23;9.50;;;3.45;;
72635;SDS011;60679;48.888;15.544;2022-10-16T14:13:49;8.98;;;3.30;;
72635;SDS011;60679;48.888;15.544;2022-10-16T14:16:20;7.32;;;3.08;;
72635;SDS011;60679;48.888;15.544;2022-10-16T14:19:05;6.38;;;3.22;;
72635;SDS011;60679;48.888;15.544;2022-10-16T14:21:31;8.03;;;3.43;;
72635;SDS011;60679;48.888;15.544;2022-10-16T14:23:58;5.32;;;2.03;;
72635;SDS011;60679;48.888;15.544;2022-10-16T14:26:27;7.50;;;3.75;;
72635;SDS011;60679;48.888;15.544;2022-10-16T14:29:04;9.45;;;3.85;;
72635;SDS011;60679;48.888;15.544;2022-10-16T14:31:53;6.97;;;3.37;;
72635;SDS011;60679;48.888;15.544;2022-10-16T14:36:58;4.55;;;2.55;;
72635;SDS011;60679;48.888;15.544;2022-10-16T14:39:27;8.63;;;2.97;;
72635;SDS011;60679;48.888;15.544;2022-10-16T14:41:55;7.07;;;3.58;;
72635;SDS011;60679;48.888;15.544;2022-10-16T14:44:23;7.33;;;3.30;;
72635;SDS011;60679;48.888;15.544;2022-10-16T14:46:53;7.68;;;3.38;;
72635;SDS011;60679;48.888;15.544;2022-10-16T14:49:19;5.57;;;3.38;;
72635;SDS011;60679;48.888;15.544;2022-10-16T14:51:46;8.53;;;3.83;;
72635;SDS011;60679;48.888;15.544;2022-10-16T14:54:13;8.27;;;3.92;;
72635;SDS011;60679;48.888;15.544;2022-10-16T14:59:15;9.77;;;3.83;;
72635;SDS011;60679;48.888;15.544;2022-10-16T15:01:44;9.93;;;4.70;;
72635;SDS011;60679;48.888;15.544;2022-10-16T15:04:10;9.03;;;3.63;;
72635;SDS011;60679;48.888;15.544;2022-10-16T15:06:37;10.85;;;5.00;;
72635;SDS011;60679;48.888;15.544;2022-10-16T15:09:02;9.02;;;5.72;;
72635;SDS011;60679;48.888;15.544;2022-10-16T15:11:28;9.50;;;5.33;;
72635;SDS011;60679;48.888;15.544;2022-10-16T15:13:56;7.57;;;4.82;;
72635;SDS011;60679;48.888;15.544;2022-10-16T15:16:21;9.10;;;4.57;;
72635;SDS011;60679;48.888;15.544;2022-10-16T15:18:47;11.07;;;4.15;;
72635;SDS011;60679;48.888;15.544;2022-10-16T15:21:20;7.70;;;3.53;;
72635;SDS011;60679;48.888;15.544;2022-10-16T15:23:49;6.68;;;3.85;;
72635;SDS011;60679;48.888;15.544;2022-10-16T15:26:15;10.23;;;5.63;;
72635;SDS011;60679;48.888;15.544;2022-10-16T15:28:41;11.33;;;5.70;;
72635;SDS011;60679;48.888;15.544;2022-10-16T15:31:06;11.73;;;5.00;;
72635;SDS011;60679;48.888;15.544;2022-10-16T15:33:32;9.67;;;3.93;;
72635;SDS011;60679;48.888;15.544;2022-10-16T15:35:59;8.65;;;4.15;;
72635;SDS011;60679;48.888;15.544;2022-10-16T15:38:26;9.98;;;5.07;;
72635;SDS011;60679;48.888;15.544;2022-10-16T15:40:53;17.05;;;6.05;;
72635;SDS011;60679;48.888;15.544;2022-10-16T15:43:18;7.30;;;4.57;;
72635;SDS011;60679;48.888;15.544;2022-10-16T15:45:44;10.83;;;5.00;;
72635;SDS011;60679;48.888;15.544;2022-10-16T15:48:23;9.38;;;4.25;;
72635;SDS011;60679;48.888;15.544;2022-10-16T15:50:48;6.63;;;3.90;;
72635;SDS011;60679;48.888;15.544;2022-10-16T15:53:14;9.77;;;4.43;;
72635;SDS011;60679;48.888;15.544;2022-10-16T15:55:39;13.82;;;5.10;;
72635;SDS011;60679;48.888;15.544;2022-10-16T15:58:04;9.93;;;4.67;;
72635;SDS011;60679;48.888;15.544;2022-10-16T16:00:30;10.17;;;4.20;;
72635;SDS011;60679;48.888;15.544;2022-10-16T16:02:56;8.90;;;4.95;;
72635;SDS011;60679;48.888;15.544;2022-10-16T16:05:24;9.73;;;4.50;;
72635;SDS011;60679;48.888;15.544;2022-10-16T16:07:50;9.02;;;4.15;;
72635;SDS011;60679;48.888;15.544;2022-10-16T16:10:16;8.87;;;4.53;;
72635;SDS011;60679;48.888;15.544;2022-10-16T16:12:42;8.95;;;5.32;;
72635;SDS011;60679;48.888;15.544;2022-10-16T16:15:08;12.57;;;5.55;;
72635;SDS011;60679;48.888;15.544;2022-10-16T16:17:34;9.70;;;3.80;;
72635;SDS011;60679;48.888;15.544;2022-10-16T16:20:00;14.48;;;5.63;;
72635;SDS011;60679;48.888;15.544;2022-10-16T16:22:26;12.65;;;5.47;;
72635;SDS011;60679;48.888;15.544;2022-10-16T16:24:52;9.20;;;3.67;;
72635;SDS011;60679;48.888;15.544;2022-10-16T16:27:18;18.73;;;7.17;;
72635;SDS011;60679;48.888;15.544;2022-10-16T16:29:44;10.00;;;5.18;;
72635;SDS011;60679;48.888;15.544;2022-10-16T16:32:10;11.37;;;5.10;;
72635;SDS011;60679;48.888;15.544;2022-10-16T16:34:36;9.70;;;5.13;;
72635;SDS011;60679;48.888;15.544;2022-10-16T16:37:01;12.93;;;6.13;;
72635;SDS011;60679;48.888;15.544;2022-10-16T16:39:27;12.40;;;5.00;;
72635;SDS011;60679;48.888;15.544;2022-10-16T16:41:52;9.73;;;5.47;;
72635;SDS011;60679;48.888;15.544;2022-10-16T16:44:20;17.23;;;5.50;;
72635;SDS011;60679;48.888;15.544;2022-10-16T16:46:45;7.47;;;4.43;;
72635;SDS011;60679;48.888;15.544;2022-10-16T16:49:11;10.43;;;4.57;;
72635;SDS011;60679;48.888;15.544;2022-10-16T16:51:37;6.85;;;4.32;;
72635;SDS011;60679;48.888;15.544;2022-10-16T16:54:04;10.18;;;6.00;;
72635;SDS011;60679;48.888;15.544;2022-10-16T16:56:29;14.05;;;5.80;;
72635;SDS011;60679;48.888;15.544;2022-10-16T16:58:55;10.07;;;3.63;;
72635;SDS011;60679;48.888;15.544;2022-10-16T17:01:22;12.38;;;4.43;;
72635;SDS011;60679;48.888;15.544;2022-10-16T17:03:50;11.82;;;6.38;;
72635;SDS011;60679;48.888;15.544;2022-10-16T17:06:18;7.33;;;3.60;;